Bei Facebook empfehlenBei Twitter postenGoogle plusPinterest

Das Wetter im Erzgebirge am 13.09.2016

Wetter und Klima am 13.09.2016 Holzhau im Erzgebirge (630m ü.NN)
Letzte gemessene Temperatur und Uhrzeit der Messung23:45:00 Uhr13.30 °C
Temperatur (Maximum / Höchstwert) und Uhrzeit der Messung14:45:00 Uhr28.90 °C
Temperatur (Minimum / Tiefstwert) und Uhrzeit der Messung04:00:0012.50 °C
Errechneter Absolutwert der Temperaturschwankungen zwischen Tmin und Tmax des Tages16.40 K
Errechnete Tagesmitteltemperatur19.28229 °C
Gesamt - Niederschlag des Tages (in flüssiger Form)0.00 Liter / m²
Luftdruck (Maximum / Höchstwert) und Zeitpunkt der Messung01:45:00 Uhr1017.60 hPa
Luftdruck (Minimum / Tiefstwert) und Zeitpunkt der Messung23:30:00 Uhr1015.60 hPa
Errechneter Absolutwert der Luftdruckschwankungen des Tages2.00 hPa
Höchste gemessene Windgeschwindigkeit und Uhrzeit der Messung23:45:00 Uhr0.00 km/h
Errechnete Windhäufigkeit in Relation zu den Messwerten des Tages0.00000 %
Niedrigste Windkühle (Windchill) und Zeitpunkt der Messung04:00:00 Uhr12.50 °C
Taupunkt (Maximum / Höchstwert) und Uhrzeit der Messung10:15:00 Uhr19.90 °C
Taupunkt (Minimum / Tiefstwert) und Uhrzeit der Messung02:45:0010.70 °C
Anzahl der automatisch eingelesenen Messwerte 96

Detaillierte Wetter- und Klima- Messwerte für den 13.09.2016 in Holzhau im Erzgebirge (630m ü.NN)
ZeitTemperaturLuftdruckRel. LuftfeuchteWindWindrichtungWindchillTaupunktNiederschlag l/m²
23:45:0013.30 °C1015.70 hPa85.00 %10.80 °C 
23:30:0013.50 °C1015.60 hPa85.00 %11.00 °C 
23:15:0013.70 °C1015.80 hPa85.00 %11.20 °C 
23:00:0013.90 °C1015.90 hPa84.00 %11.20 °C 
22:45:0014.10 °C1015.90 hPa84.00 %11.40 °C 
22:30:0014.40 °C1015.80 hPa83.00 %11.60 °C 
22:15:0014.60 °C1015.80 hPa83.00 %11.70 °C 
22:00:0014.90 °C1015.80 hPa82.00 %11.90 °C 
21:45:0015.40 °C1015.60 hPa81.00 %12.20 °C 
21:30:0015.80 °C1015.70 hPa81.00 %12.50 °C 
21:15:0016.10 °C1015.70 hPa81.00 %12.80 °C 
21:00:0016.40 °C1015.70 hPa80.00 %12.90 °C 
20:45:0016.70 °C1015.70 hPa79.00 %13.00 °C 
20:30:0016.90 °C1015.60 hPa77.00 %12.80 °C 
20:15:0017.20 °C1015.60 hPa76.00 %12.90 °C 
20:00:0017.50 °C1015.70 hPa73.00 %12.60 °C 
19:45:0018.10 °C1015.80 hPa70.00 %12.50 °C 
19:30:0019.10 °C1015.80 hPa67.00 %12.80 °C 
19:15:0020.30 °C1015.80 hPa64.00 %13.30 °C 
19:00:0021.60 °C1016.00 hPa62.00 %14.00 °C 
18:45:0023.10 °C1016.10 hPa59.00 %14.70 °C 
18:30:0024.40 °C1016.00 hPa57.00 %15.30 °C 
18:15:0025.60 °C1016.10 hPa53.00 %15.30 °C 
18:00:0026.30 °C1016.20 hPa51.00 %15.40 °C 
17:45:0026.60 °C1016.20 hPa51.00 %15.60 °C 
17:30:0026.90 °C1016.40 hPa49.00 %15.30 °C 
17:15:0027.30 °C1016.50 hPa49.00 %15.60 °C 
17:00:0027.30 °C1016.60 hPa49.00 %15.60 °C 
16:45:0027.80 °C1016.50 hPa49.00 %16.10 °C 
16:30:0027.80 °C1016.50 hPa49.00 %16.10 °C 
16:15:0027.80 °C1016.50 hPa49.00 %16.10 °C 
16:00:0027.90 °C1016.70 hPa48.00 %15.90 °C 
15:45:0027.90 °C1016.70 hPa50.00 %16.50 °C 
15:30:0027.80 °C1016.80 hPa49.00 %16.10 °C 
15:15:0028.40 °C1016.70 hPa49.00 %16.70 °C 
15:00:0028.60 °C1016.80 hPa48.00 %16.50 °C 
14:45:0028.90 °C1016.80 hPa48.00 %16.80 °C 
14:30:0028.90 °C1016.80 hPa49.00 %17.10 °C 
14:15:0028.90 °C1016.80 hPa50.00 %17.40 °C 
14:00:0028.90 °C1016.80 hPa51.00 %17.70 °C 
13:45:0028.80 °C1016.70 hPa52.00 %18.00 °C 
13:30:0028.40 °C1016.70 hPa52.00 %17.60 °C 
13:15:0028.40 °C1016.80 hPa52.00 %17.60 °C 
13:00:0028.30 °C1016.70 hPa53.00 %17.80 °C 
12:45:0028.20 °C1016.60 hPa55.00 %18.30 °C 
12:30:0027.80 °C1016.80 hPa57.00 %18.50 °C 
12:15:0027.30 °C1016.70 hPa57.00 %18.00 °C 
12:00:0026.90 °C1016.70 hPa58.00 %17.90 °C 
11:45:0026.90 °C1016.70 hPa58.00 %17.90 °C 
11:30:0026.90 °C1016.90 hPa61.00 %18.70 °C 
11:15:0026.30 °C1016.80 hPa63.00 %18.70 °C 
11:00:0025.90 °C1016.70 hPa65.00 %18.80 °C 
10:45:0025.30 °C1016.80 hPa69.00 %19.20 °C 
10:30:0024.80 °C1016.70 hPa73.00 %19.60 °C 
10:15:0023.60 °C1016.70 hPa80.00 %19.90 °C 
10:00:0022.10 °C1016.80 hPa83.00 %19.10 °C 
09:45:0020.80 °C1016.60 hPa86.00 %18.40 °C 
09:30:0019.50 °C1016.70 hPa88.00 %17.50 °C 
09:15:0018.20 °C1016.70 hPa89.00 %16.40 °C 
09:00:0016.80 °C1016.70 hPa89.00 %15.00 °C 
08:45:0015.80 °C1016.60 hPa90.00 %14.20 °C 
08:30:0014.90 °C1016.70 hPa90.00 %13.30 °C 
08:15:0014.40 °C1016.60 hPa90.00 %12.80 °C 
08:00:0013.80 °C1016.70 hPa90.00 %12.20 °C 
07:45:0013.10 °C1016.60 hPa89.00 %11.30 °C 
07:30:0013.10 °C1016.60 hPa89.00 %11.30 °C 
07:15:0013.10 °C1016.70 hPa89.00 %11.30 °C 
07:00:0013.10 °C1016.60 hPa89.00 %11.30 °C 
06:45:0013.30 °C1016.50 hPa89.00 %11.50 °C 
06:30:0013.40 °C1016.50 hPa89.00 %11.60 °C 
06:15:0013.40 °C1016.40 hPa90.00 %11.80 °C 
06:00:0013.40 °C1016.70 hPa90.00 %11.80 °C 
05:45:0013.30 °C1016.70 hPa90.00 %11.70 °C 
05:30:0013.40 °C1016.60 hPa90.00 %11.80 °C 
05:15:0013.30 °C1016.60 hPa91.00 %11.90 °C 
05:00:0013.20 °C1016.70 hPa90.00 %11.60 °C 
04:45:0012.90 °C1016.90 hPa90.00 %11.30 °C 
04:30:0012.80 °C1016.90 hPa90.00 %11.20 °C 
04:15:0012.70 °C1016.90 hPa90.00 %11.10 °C 
04:00:0012.50 °C1016.90 hPa90.00 %10.90 °C 
03:45:0012.70 °C1016.90 hPa90.00 %11.10 °C 
03:30:0012.60 °C1017.00 hPa90.00 %11.00 °C 
03:15:0012.60 °C1017.00 hPa90.00 %11.00 °C 
03:00:0012.60 °C1017.10 hPa90.00 %11.00 °C 
02:45:0012.50 °C1017.10 hPa89.00 %10.70 °C 
02:30:0012.50 °C1017.10 hPa89.00 %10.70 °C 
02:15:0012.70 °C1017.30 hPa88.00 %10.80 °C 
02:00:0013.10 °C1017.50 hPa88.00 %11.20 °C 
01:45:0013.30 °C1017.60 hPa88.00 %11.40 °C 
01:30:0013.30 °C1017.60 hPa88.00 %11.40 °C 
01:15:0013.30 °C1017.60 hPa88.00 %11.40 °C 
01:00:0013.60 °C1017.50 hPa87.00 %11.50 °C 
00:45:0013.90 °C1017.40 hPa88.00 %11.90 °C 
00:30:0013.90 °C1017.60 hPa88.00 %11.90 °C 
00:15:0013.90 °C1017.50 hPa87.00 %11.80 °C 
00:00:0013.90 °C1017.60 hPa87.00 %11.80 °C 

Permanenter Link zu dieser Seite: Wetter im Erzgebirge am 13.09.2016
Performance-Info: Die Erstellung der Seite / Statistik(en) / Tabelle(n) erforderte 5 Datenbankserver-Abfrage(n) und dauerte 125 Millisekunden. (Dieser Messwert ist von der Gesamt-Auslastung des Servers abhängig.)
Erzgebirge - Wetter | Erzgebirge - Wetter (Mobilgeräte) | Komplette Klimadatenbank